Cascade Summit, Oregon
Current Conditions -  °F | °C
As of 9:35 AM on Friday 21 Nov 2014 (Local Time) from KBDN Reporting Station
Clear Clear  
Wind Chill: 35°   Ceiling: Unl
Heat Index: 39°   Visibility: 10mi
Dew Point: 32°   Wind: 6mph
Humidity: 75%   Direction: 210°SSW
Pressure: 29.89"   Gusts: NA
Location:  43.5071°N, 121.968°W
Report Text: KBDN 211735Z AUTO 21005KT 10SM CLR 04/00 A2989 RMK AO2
Loading
Personal Weather Stations






























Interactive Weather Map New forecast layout! Learn more

10-Day Weather Forecast

Advertisements
Track Severe Weather on mobile